createdAt,value
2022-08-21T00:01:43.570Z,98.10
2022-08-21T00:04:13.631Z,97.91
2022-08-21T00:06:49.097Z,97.98
2022-08-21T00:09:16.709Z,98.39
2022-08-21T00:11:44.294Z,98.61
2022-08-21T00:14:13.190Z,98.79
2022-08-21T00:16:40.794Z,98.44
2022-08-21T00:19:09.314Z,98.28
2022-08-21T00:21:37.949Z,98.44
2022-08-21T00:24:07.747Z,99.31
2022-08-21T00:26:35.524Z,99.23
2022-08-21T00:29:05.753Z,99.44
2022-08-21T00:31:33.429Z,99.23
2022-08-21T00:34:02.025Z,99.56
2022-08-21T00:36:29.796Z,99.25
2022-08-21T00:38:57.406Z,99.93
2022-08-21T00:41:37.152Z,100.00
2022-08-21T00:44:06.009Z,100.00
2022-08-21T00:46:33.610Z,100.00
2022-08-21T00:49:01.200Z,100.00
2022-08-21T00:51:38.576Z,100.00
2022-08-21T00:54:09.933Z,100.00
2022-08-21T00:56:49.856Z,100.00
2022-08-21T00:59:19.672Z,100.00
2022-08-21T01:01:47.869Z,100.00
2022-08-21T01:04:17.221Z,100.00
2022-08-21T01:06:45.184Z,100.00
2022-08-21T01:09:13.024Z,100.00
2022-08-21T01:11:42.834Z,100.00
2022-08-21T01:14:13.097Z,100.00
2022-08-21T01:16:42.486Z,100.00
2022-08-21T01:19:10.731Z,100.00
2022-08-21T01:21:41.093Z,100.00
2022-08-21T01:24:08.793Z,100.00
2022-08-21T01:26:38.100Z,100.00
2022-08-21T01:29:11.363Z,100.00
2022-08-21T01:31:39.757Z,100.00
2022-08-21T01:34:08.324Z,100.00
2022-08-21T01:36:36.537Z,100.00
2022-08-21T01:39:06.992Z,100.00
2022-08-21T01:41:34.613Z,100.00
2022-08-21T01:44:02.506Z,100.00
2022-08-21T01:46:31.354Z,100.00
2022-08-21T01:48:58.988Z,100.00
2022-08-21T01:51:26.826Z,100.00
2022-08-21T01:53:54.405Z,100.00
2022-08-21T01:56:24.031Z,100.00
2022-08-21T01:58:51.605Z,100.00
2022-08-21T02:01:19.250Z,100.00
2022-08-21T02:03:46.906Z,100.00
2022-08-21T02:06:18.620Z,100.00
2022-08-21T02:08:46.757Z,100.00
2022-08-21T02:11:14.445Z,100.00
2022-08-21T02:13:43.389Z,100.00
2022-08-21T02:16:11.092Z,100.00
2022-08-21T02:18:38.773Z,100.00
2022-08-21T02:21:07.018Z,100.00
2022-08-21T02:23:35.009Z,100.00
2022-08-21T02:26:04.850Z,100.00
2022-08-21T02:28:33.285Z,100.00
2022-08-21T02:31:02.458Z,100.00
2022-08-21T02:33:30.603Z,100.00
2022-08-21T02:35:59.647Z,100.00
2022-08-21T02:38:30.158Z,100.00
2022-08-21T02:40:59.145Z,100.00
2022-08-21T02:43:29.119Z,100.00
2022-08-21T02:45:57.614Z,100.00
2022-08-21T02:48:29.053Z,100.00
2022-08-21T02:50:59.118Z,100.00
2022-08-21T02:53:27.326Z,100.00
2022-08-21T02:55:55.962Z,100.00
2022-08-21T02:58:27.064Z,100.00
2022-08-21T03:00:55.683Z,100.00
2022-08-21T03:03:24.082Z,100.00
2022-08-21T03:05:53.517Z,100.00
2022-08-21T03:08:21.725Z,100.00
2022-08-21T03:10:53.804Z,100.00
2022-08-21T03:13:22.457Z,100.00
2022-08-21T03:15:51.388Z,100.00
2022-08-21T03:18:19.297Z,100.00
2022-08-21T03:20:47.604Z,100.00
2022-08-21T03:23:19.045Z,100.00
2022-08-21T03:25:48.368Z,100.00
2022-08-21T03:28:18.896Z,100.00
2022-08-21T03:30:48.184Z,100.00
2022-08-21T03:33:16.110Z,100.00
2022-08-21T03:35:44.953Z,100.00
2022-08-21T03:38:14.589Z,100.00
2022-08-21T03:40:44.264Z,100.00
2022-08-21T03:43:12.601Z,100.00
2022-08-21T03:45:40.968Z,100.00
2022-08-21T03:48:10.056Z,100.00
2022-08-21T03:50:41.701Z,100.00
2022-08-21T03:53:17.405Z,100.00
2022-08-21T03:55:48.641Z,100.00
2022-08-21T03:58:17.656Z,100.00
2022-08-21T04:00:46.369Z,100.00
2022-08-21T04:03:14.207Z,100.00
2022-08-21T04:05:41.940Z,100.00
2022-08-21T04:08:10.112Z,100.00
2022-08-21T04:10:39.873Z,100.00
2022-08-21T04:13:10.201Z,100.00
2022-08-21T04:15:38.222Z,100.00
2022-08-21T04:18:06.825Z,100.00
2022-08-21T04:20:35.160Z,100.00
2022-08-21T04:23:02.819Z,100.00
2022-08-21T04:25:30.504Z,100.00
2022-08-21T04:27:58.129Z,100.00
2022-08-21T04:30:28.203Z,100.00
2022-08-21T04:32:58.175Z,100.00
2022-08-21T04:35:27.979Z,100.00
2022-08-21T04:37:55.624Z,100.00
2022-08-21T04:40:25.051Z,100.00
2022-08-21T04:42:56.447Z,100.00
2022-08-21T04:45:28.152Z,100.00
2022-08-21T04:47:57.782Z,100.00
2022-08-21T04:50:31.120Z,100.00
2022-08-21T04:52:59.905Z,100.00
2022-08-21T04:55:28.817Z,100.00
2022-08-21T04:57:57.364Z,100.00
2022-08-21T05:00:27.745Z,100.00
2022-08-21T05:03:00.142Z,100.00
2022-08-21T05:05:29.890Z,100.00
2022-08-21T05:07:59.513Z,100.00
2022-08-21T05:10:27.556Z,96.83
2022-08-21T05:12:55.335Z,88.28
2022-08-21T05:15:23.069Z,85.84
2022-08-21T05:17:53.755Z,84.35
2022-08-21T05:20:28.540Z,82.85
2022-08-21T05:22:56.177Z,77.29
2022-08-21T05:25:24.158Z,74.91
2022-08-21T05:27:52.349Z,68.89
2022-08-21T05:30:21.098Z,68.22
2022-08-21T05:32:49.284Z,65.82
2022-08-21T05:35:18.213Z,64.17
2022-08-21T05:37:45.770Z,62.07
2022-08-21T05:40:22.219Z,60.12
2022-08-21T05:42:54.286Z,57.73
2022-08-21T05:45:42.320Z,55.98
2022-08-21T05:48:12.205Z,53.72
2022-08-21T05:50:41.667Z,52.40
2022-08-21T05:53:10.326Z,51.63
2022-08-21T05:55:44.235Z,49.16
2022-08-21T05:58:13.198Z,47.55
2022-08-21T06:00:41.085Z,48.54
2022-08-21T06:03:13.173Z,45.99
2022-08-21T06:05:42.151Z,47.04
2022-08-21T06:08:09.741Z,46.58
2022-08-21T06:10:37.329Z,45.07
2022-08-21T06:13:05.555Z,41.14
2022-08-21T06:15:33.274Z,43.51
2022-08-21T06:18:00.857Z,43.08
2022-08-21T06:20:29.166Z,42.13
2022-08-21T06:22:58.276Z,41.49
2022-08-21T06:25:26.884Z,40.83
2022-08-21T06:27:54.729Z,40.59
2022-08-21T06:30:22.524Z,38.02
2022-08-21T06:32:50.076Z,36.82
2022-08-21T06:35:17.676Z,36.62
2022-08-21T06:37:45.247Z,38.01
2022-08-21T06:40:14.651Z,35.91
2022-08-21T06:42:42.818Z,35.25
2022-08-21T06:45:11.421Z,36.40
2022-08-21T06:47:39.166Z,37.86
2022-08-21T06:50:09.193Z,36.28
2022-08-21T06:52:37.012Z,37.20
2022-08-21T06:55:06.872Z,36.17
2022-08-21T06:57:36.333Z,35.09
2022-08-21T07:00:06.190Z,36.91
2022-08-21T07:02:34.980Z,36.28
2022-08-21T07:05:11.793Z,35.73
2022-08-21T07:07:45.928Z,36.95
2022-08-21T07:10:22.000Z,35.86
2022-08-21T07:13:01.236Z,34.59
2022-08-21T07:15:30.875Z,35.36
2022-08-21T07:17:59.266Z,36.57
2022-08-21T07:20:27.901Z,36.74
2022-08-21T07:22:55.969Z,36.08
2022-08-21T07:25:24.036Z,34.03
2022-08-21T07:27:53.209Z,36.67
2022-08-21T07:30:20.848Z,36.53
2022-08-21T07:32:50.114Z,36.64
2022-08-21T07:35:18.450Z,36.92
2022-08-21T07:37:46.093Z,36.62
2022-08-21T07:40:14.143Z,37.79
2022-08-21T07:42:43.234Z,38.07
2022-08-21T07:45:13.676Z,37.92
2022-08-21T07:47:42.935Z,39.28
2022-08-21T07:50:12.007Z,40.05
2022-08-21T07:52:40.125Z,41.07
2022-08-21T07:55:08.777Z,41.86
2022-08-21T07:57:36.398Z,42.67
2022-08-21T08:00:05.637Z,43.00
2022-08-21T08:02:34.596Z,43.59
2022-08-21T08:05:03.232Z,44.39
2022-08-21T08:07:31.179Z,44.61
2022-08-21T08:09:59.559Z,44.55
2022-08-21T08:12:30.302Z,44.88
2022-08-21T08:14:58.303Z,45.49
2022-08-21T08:17:26.769Z,45.26
2022-08-21T08:19:56.351Z,44.94
2022-08-21T08:22:25.407Z,44.56
2022-08-21T08:24:54.584Z,44.68
2022-08-21T08:27:23.774Z,44.21
2022-08-21T08:29:52.378Z,44.32
2022-08-21T08:32:20.401Z,45.38
2022-08-21T08:34:49.666Z,45.49
2022-08-21T08:37:18.996Z,46.45
2022-08-21T08:39:50.810Z,46.28
2022-08-21T08:42:33.140Z,46.89
2022-08-21T08:45:06.197Z,47.36
2022-08-21T08:47:39.907Z,47.07
2022-08-21T08:50:12.758Z,47.57
2022-08-21T08:52:49.213Z,47.74
2022-08-21T08:55:24.204Z,48.65
2022-08-21T08:57:57.094Z,48.19
2022-08-21T09:00:26.072Z,48.69
2022-08-21T09:02:56.424Z,47.90
2022-08-21T09:05:27.830Z,47.75
2022-08-21T09:08:22.078Z,47.97
2022-08-21T09:10:58.086Z,48.40
2022-08-21T09:13:38.340Z,49.47
2022-08-21T09:16:13.220Z,49.03
2022-08-21T09:18:55.452Z,48.40
2022-08-21T09:21:30.051Z,48.96
2022-08-21T09:24:03.828Z,48.99
2022-08-21T09:26:39.927Z,48.58
2022-08-21T09:29:12.850Z,48.78
2022-08-21T09:31:40.410Z,46.94
2022-08-21T09:34:10.934Z,45.14
2022-08-21T09:36:42.525Z,46.33
2022-08-21T09:39:14.173Z,46.17
2022-08-21T09:41:41.873Z,46.54
2022-08-21T09:44:10.400Z,45.93
2022-08-21T09:46:38.264Z,45.96
2022-08-21T09:49:10.373Z,46.74
2022-08-21T09:51:53.401Z,46.52
2022-08-21T09:54:28.393Z,46.42
2022-08-21T09:57:16.436Z,46.49
2022-08-21T09:59:46.201Z,45.62
2022-08-21T10:02:26.182Z,46.69
2022-08-21T10:04:55.740Z,45.74
2022-08-21T10:07:25.242Z,47.01
2022-08-21T10:10:06.704Z,47.07
2022-08-21T10:12:45.760Z,46.63
2022-08-21T10:15:22.032Z,46.88
2022-08-21T10:18:00.760Z,45.60
2022-08-21T10:20:34.592Z,46.13
2022-08-21T10:23:28.352Z,45.07
2022-08-21T10:26:14.312Z,43.57
2022-08-21T10:28:51.252Z,42.25
2022-08-21T10:31:28.584Z,42.51
2022-08-21T10:34:13.100Z,43.22
2022-08-21T10:36:48.141Z,42.79
2022-08-21T10:39:35.467Z,43.81
2022-08-21T10:42:28.062Z,41.89
2022-08-21T10:45:12.392Z,40.51
2022-08-21T10:47:47.149Z,41.65
2022-08-21T10:50:23.929Z,41.68
2022-08-21T10:53:03.966Z,41.56
2022-08-21T10:55:36.205Z,42.65
2022-08-21T10:58:10.677Z,42.87
2022-08-21T11:00:47.083Z,42.40
2022-08-21T11:03:19.702Z,40.64
2022-08-21T11:05:52.232Z,40.96
2022-08-21T11:08:24.841Z,40.20
2022-08-21T11:11:00.030Z,38.60
2022-08-21T11:13:39.417Z,41.00
2022-08-21T11:16:16.589Z,41.58
2022-08-21T11:18:49.253Z,42.27
2022-08-21T11:21:31.393Z,39.72
2022-08-21T11:24:05.630Z,40.54
2022-08-21T11:26:40.954Z,40.29
2022-08-21T11:29:15.228Z,40.29
2022-08-21T11:31:54.704Z,39.86
2022-08-21T11:34:41.161Z,38.65
2022-08-21T11:37:19.532Z,40.50
2022-08-21T11:39:59.170Z,40.32
2022-08-21T11:42:37.228Z,40.88
2022-08-21T11:45:19.854Z,40.73
2022-08-21T11:47:57.981Z,40.64
2022-08-21T11:50:34.509Z,40.23
2022-08-21T11:53:10.826Z,41.14
2022-08-21T11:55:43.372Z,39.71
2022-08-21T11:58:16.417Z,40.57
2022-08-21T12:00:50.949Z,40.79
2022-08-21T12:03:27.328Z,38.95
2022-08-21T12:05:56.619Z,40.23
2022-08-21T12:08:35.854Z,40.49
2022-08-21T12:11:08.313Z,40.09
2022-08-21T12:13:42.390Z,40.39
2022-08-21T12:16:29.900Z,39.58
2022-08-21T12:19:06.478Z,37.83
2022-08-21T12:21:34.741Z,38.06
2022-08-21T12:24:06.361Z,38.13
2022-08-21T12:26:36.701Z,38.25
2022-08-21T12:29:17.564Z,38.83
2022-08-21T12:31:59.225Z,39.56
2022-08-21T12:34:39.048Z,40.07
2022-08-21T12:37:13.433Z,40.35
2022-08-21T12:39:46.605Z,41.02
2022-08-21T12:42:19.078Z,41.97
2022-08-21T12:44:52.313Z,41.53
2022-08-21T12:47:29.524Z,41.27
2022-08-21T12:50:04.218Z,41.90
2022-08-21T12:52:39.370Z,43.21
2022-08-21T12:55:08.697Z,43.31
2022-08-21T12:57:38.990Z,42.82
2022-08-21T13:00:12.561Z,44.21
2022-08-21T13:02:49.165Z,44.71
2022-08-21T13:05:22.280Z,45.80
2022-08-21T13:07:50.329Z,46.78
2022-08-21T13:10:22.677Z,48.82
2022-08-21T13:12:51.048Z,51.80
2022-08-21T13:15:33.027Z,55.79
2022-08-21T13:18:05.253Z,56.34
2022-08-21T13:20:38.885Z,55.08
2022-08-21T13:23:24.860Z,58.13
2022-08-21T13:25:52.589Z,57.51
2022-08-21T13:28:20.488Z,57.48
2022-08-21T13:30:50.668Z,57.51
2022-08-21T13:33:22.337Z,57.31
2022-08-21T13:35:52.386Z,57.08
2022-08-21T13:38:26.639Z,56.37
2022-08-21T13:40:58.678Z,55.12
2022-08-21T13:43:29.521Z,53.63
2022-08-21T13:45:58.645Z,52.60
2022-08-21T13:48:31.900Z,51.78
2022-08-21T13:51:00.804Z,52.15
2022-08-21T13:53:32.562Z,52.67
2022-08-21T13:56:02.192Z,55.84
2022-08-21T13:58:31.693Z,55.56
2022-08-21T14:01:01.959Z,55.38
2022-08-21T14:03:40.273Z,56.46
2022-08-21T14:06:14.933Z,55.71
2022-08-21T14:08:43.938Z,56.11
2022-08-21T14:11:14.429Z,56.34
2022-08-21T14:13:45.022Z,57.24
2022-08-21T14:16:17.187Z,58.07
2022-08-21T14:18:52.616Z,58.11
2022-08-21T14:21:44.538Z,55.51
2022-08-21T14:24:14.351Z,55.02
2022-08-21T14:26:50.612Z,54.11
2022-08-21T14:29:20.462Z,57.66
2022-08-21T14:31:54.766Z,59.83
2022-08-21T14:34:24.462Z,58.74
2022-08-21T14:36:52.904Z,56.75
2022-08-21T14:39:21.186Z,55.47
2022-08-21T14:41:49.749Z,55.03
2022-08-21T14:44:20.061Z,54.70
2022-08-21T14:46:55.424Z,53.16
2022-08-21T14:49:27.145Z,51.36
2022-08-21T14:51:58.040Z,50.47
2022-08-21T14:54:28.112Z,50.52
2022-08-21T14:57:00.872Z,49.39
2022-08-21T14:59:28.545Z,50.35
2022-08-21T15:01:57.125Z,48.81
2022-08-21T15:04:26.413Z,48.26
2022-08-21T15:06:53.973Z,47.79
2022-08-21T15:09:21.933Z,48.69
2022-08-21T15:11:49.933Z,48.60
2022-08-21T15:14:26.556Z,47.50
2022-08-21T15:16:54.342Z,44.55
2022-08-21T15:19:21.973Z,45.11
2022-08-21T15:21:50.953Z,44.19
2022-08-21T15:24:18.568Z,44.21
2022-08-21T15:26:46.953Z,45.75
2022-08-21T15:29:15.001Z,44.79
2022-08-21T15:31:57.462Z,44.76
2022-08-21T15:34:27.285Z,46.13
2022-08-21T15:36:58.189Z,47.58
2022-08-21T15:39:30.120Z,46.93
2022-08-21T15:41:59.065Z,46.39
2022-08-21T15:44:27.841Z,46.27
2022-08-21T15:46:55.469Z,46.52
2022-08-21T15:49:23.041Z,46.96
2022-08-21T15:51:50.721Z,54.89
2022-08-21T15:54:19.643Z,55.45
2022-08-21T15:56:50.932Z,58.36
2022-08-21T15:59:22.685Z,58.32
2022-08-21T16:01:51.867Z,58.44
2022-08-21T16:04:24.213Z,61.29
2022-08-21T16:06:55.614Z,61.17
2022-08-21T16:09:27.085Z,59.15
2022-08-21T16:11:55.072Z,60.56
2022-08-21T16:14:22.682Z,56.64
2022-08-21T16:16:50.344Z,56.76
2022-08-21T16:19:18.120Z,56.22
2022-08-21T16:21:46.086Z,56.09
2022-08-21T16:24:13.695Z,56.33
2022-08-21T16:26:42.664Z,57.67
2022-08-21T16:29:11.268Z,58.07
2022-08-21T16:31:39.901Z,57.77
2022-08-21T16:34:07.517Z,60.31
2022-08-21T16:36:35.128Z,64.57
2022-08-21T16:39:02.989Z,65.38
2022-08-21T16:41:36.302Z,67.65
2022-08-21T16:44:07.088Z,65.53
2022-08-21T16:46:40.649Z,66.17
2022-08-21T16:49:09.973Z,67.03
2022-08-21T16:51:38.028Z,66.27
2022-08-21T16:54:06.016Z,65.60
2022-08-21T16:56:33.854Z,64.92
2022-08-21T16:59:01.562Z,66.03
2022-08-21T17:01:34.114Z,65.52
2022-08-21T17:04:02.313Z,64.51
2022-08-21T17:06:31.154Z,66.25
2022-08-21T17:08:59.465Z,66.32
2022-08-21T17:11:37.323Z,68.06
2022-08-21T17:14:09.413Z,66.74
2022-08-21T17:16:39.894Z,68.93
2022-08-21T17:19:08.266Z,67.31
2022-08-21T17:21:36.426Z,67.41
2022-08-21T17:24:04.522Z,66.83
2022-08-21T17:26:32.610Z,67.62
2022-08-21T17:29:00.626Z,66.00
2022-08-21T17:31:28.921Z,67.83
2022-08-21T17:33:58.008Z,66.28
2022-08-21T17:36:27.648Z,69.13
2022-08-21T17:38:56.250Z,69.20
2022-08-21T17:41:24.552Z,68.94
2022-08-21T17:43:52.826Z,69.94
2022-08-21T17:46:28.036Z,70.29
2022-08-21T17:48:58.488Z,73.36
2022-08-21T17:51:29.185Z,73.92
2022-08-21T17:53:57.117Z,77.37
2022-08-21T17:56:27.301Z,76.72
2022-08-21T17:58:55.148Z,77.19
2022-08-21T18:01:22.750Z,75.46
2022-08-21T18:03:50.308Z,75.71
2022-08-21T18:06:19.568Z,77.09
2022-08-21T18:08:47.891Z,76.01
2022-08-21T18:11:23.201Z,75.43
2022-08-21T18:13:52.875Z,75.62
2022-08-21T18:16:20.980Z,75.81
2022-08-21T18:18:51.402Z,76.49
2022-08-21T18:21:20.825Z,76.38
2022-08-21T18:23:48.466Z,75.51
2022-08-21T18:26:26.124Z,75.06
2022-08-21T18:28:53.957Z,74.80
2022-08-21T18:31:22.098Z,75.27
2022-08-21T18:33:58.625Z,76.13
2022-08-21T18:36:29.325Z,76.64
2022-08-21T18:39:13.379Z,76.50
2022-08-21T18:41:47.204Z,76.37
2022-08-21T18:44:16.619Z,76.75
2022-08-21T18:46:46.713Z,76.13
2022-08-21T18:49:14.296Z,76.18
2022-08-21T18:51:45.400Z,75.80
2022-08-21T18:54:13.286Z,76.08
2022-08-21T18:56:41.201Z,78.34
2022-08-21T18:59:10.122Z,78.98
2022-08-21T19:01:38.496Z,79.37
2022-08-21T19:04:08.937Z,79.24
2022-08-21T19:06:41.026Z,79.44
2022-08-21T19:09:17.030Z,78.50
2022-08-21T19:11:45.169Z,77.89
2022-08-21T19:14:17.025Z,77.11
2022-08-21T19:16:46.962Z,77.17
2022-08-21T19:19:17.631Z,76.60
2022-08-21T19:21:47.124Z,76.65
2022-08-21T19:24:23.226Z,76.83
2022-08-21T19:26:55.961Z,77.03
2022-08-21T19:29:34.968Z,77.09
2022-08-21T19:32:05.259Z,77.45
2022-08-21T19:34:34.788Z,77.87
2022-08-21T19:37:02.740Z,78.53
2022-08-21T19:39:34.799Z,78.87
2022-08-21T19:42:03.036Z,78.78
2022-08-21T19:44:31.633Z,79.21
2022-08-21T19:47:00.786Z,79.48
2022-08-21T19:49:35.383Z,79.72
2022-08-21T19:52:12.885Z,79.60
2022-08-21T19:54:42.470Z,79.60
2022-08-21T19:57:12.025Z,79.69
2022-08-21T19:59:40.894Z,79.88
2022-08-21T20:02:10.286Z,82.02
2022-08-21T20:04:38.310Z,81.88
2022-08-21T20:07:08.088Z,82.21
2022-08-21T20:09:37.233Z,85.68
2022-08-21T20:14:57.381Z,88.74
2022-08-21T20:17:25.246Z,90.57
2022-08-21T20:19:55.188Z,91.11
2022-08-21T20:22:24.064Z,92.01
2022-08-21T20:24:52.031Z,92.85
2022-08-21T20:27:25.893Z,93.04
2022-08-21T20:29:55.723Z,93.14
2022-08-21T20:32:23.595Z,93.18
2022-08-21T20:34:52.070Z,92.69
2022-08-21T20:37:35.631Z,92.37
2022-08-21T20:40:07.782Z,93.61
2022-08-21T20:42:36.960Z,93.61
2022-08-21T20:45:08.215Z,94.29
2022-08-21T20:47:37.660Z,94.45
2022-08-21T20:50:13.885Z,93.75
2022-08-21T20:52:42.966Z,94.95
2022-08-21T20:55:13.770Z,95.07
2022-08-21T20:57:51.170Z,94.67
2022-08-21T21:00:22.233Z,96.06
2022-08-21T21:02:54.645Z,97.23
2022-08-21T21:05:27.896Z,95.95
2022-08-21T21:08:01.473Z,95.09
2022-08-21T21:10:36.057Z,95.16
2022-08-21T21:13:11.443Z,95.79
2022-08-21T21:15:42.076Z,95.99
2022-08-21T21:18:14.239Z,95.61
2022-08-21T21:20:49.045Z,95.20
2022-08-21T21:23:26.123Z,95.52
2022-08-21T21:26:01.223Z,95.38
2022-08-21T21:28:41.677Z,96.37
2022-08-21T21:31:11.405Z,96.51
2022-08-21T21:33:40.717Z,96.57
2022-08-21T21:36:18.092Z,96.25
2022-08-21T21:38:53.549Z,96.30
2022-08-21T21:41:31.097Z,96.40
2022-08-21T21:44:34.887Z,96.81
2022-08-21T21:47:08.716Z,96.39
2022-08-21T21:49:56.245Z,95.17
2022-08-21T21:52:42.151Z,94.20
2022-08-21T21:55:28.556Z,93.25
2022-08-21T21:58:16.726Z,92.58
2022-08-21T22:00:53.455Z,92.32
2022-08-21T22:03:27.000Z,92.59
2022-08-21T22:05:57.969Z,92.17
2022-08-21T22:08:34.478Z,92.22
2022-08-21T22:14:09.797Z,92.13
2022-08-21T22:16:39.333Z,92.21
2022-08-21T22:19:15.484Z,92.56
2022-08-21T22:21:50.096Z,93.02
2022-08-21T22:24:22.393Z,93.76
2022-08-21T22:26:54.339Z,94.53
2022-08-21T22:29:24.162Z,94.60
2022-08-21T22:32:05.888Z,94.54
2022-08-21T22:34:34.637Z,94.61
2022-08-21T22:37:05.784Z,94.58
2022-08-21T22:42:27.358Z,94.86
2022-08-21T22:44:58.664Z,95.28
2022-08-21T22:47:34.506Z,95.47
2022-08-21T22:50:05.778Z,95.61
2022-08-21T22:52:36.779Z,95.46
2022-08-21T22:55:19.417Z,95.48
2022-08-21T22:58:04.864Z,95.53
2022-08-21T23:00:42.522Z,95.63
2022-08-21T23:03:21.750Z,95.67
2022-08-21T23:05:50.806Z,95.84
2022-08-21T23:08:24.966Z,96.08
2022-08-21T23:10:58.425Z,96.23
2022-08-21T23:13:26.120Z,96.81
2022-08-21T23:16:06.416Z,97.31
2022-08-21T23:18:48.289Z,97.48
2022-08-21T23:21:23.968Z,97.63
2022-08-21T23:24:03.797Z,97.61
2022-08-21T23:26:40.410Z,97.69
2022-08-21T23:29:25.148Z,97.87
2022-08-21T23:32:03.659Z,98.03
2022-08-21T23:34:41.017Z,98.02
2022-08-21T23:37:48.966Z,97.98
2022-08-21T23:40:47.034Z,98.22
2022-08-21T23:43:33.097Z,98.34
2022-08-21T23:46:18.566Z,98.59
2022-08-21T23:48:52.737Z,98.74
2022-08-21T23:51:28.678Z,98.81
2022-08-21T23:54:07.733Z,98.86
2022-08-21T23:56:48.854Z,99.45
2022-08-21T23:59:28.339Z,99.92
